Time;durP1;ratioP1;P1;durP2;ratioP2;P2;SDS_P1;SDS_P2;PMS_P1;PMS_P2;Temp;Humidity;BMP_temperature;BMP_pressure;BME280_temperature;BME280_humidity;BME280_pressure;Samples;Min_cycle;Max_cycle;Signal;HPM_P1;HPM_P2
2021/08/30 00:03:25;;;;;;;18.35;11.15;;;;;;;15.97;100.00;101939.38;10459784;28;20051;-63
2021/08/30 00:08:27;;;;;;;25.95;11.20;;;;;;;15.86;100.00;101930.41;10459345;28;20420;-64
2021/08/30 00:13:30;;;;;;;14.20;10.85;;;;;;;15.93;100.00;101935.22;10458997;28;20049;-63
2021/08/30 00:18:32;;;;;;;15.30;10.20;;;;;;;15.94;100.00;101926.34;10459605;28;20045;-64
2021/08/30 00:23:34;;;;;;;20.52;11.35;;;;;;;15.67;100.00;101933.28;10458679;28;20496;-63
2021/08/30 00:28:37;;;;;;;16.52;10.55;;;;;;;15.82;100.00;101939.47;10458727;28;20056;-64
2021/08/30 00:33:39;;;;;;;15.85;11.70;;;;;;;15.66;100.00;101931.59;10459172;28;20071;-63
2021/08/30 00:38:41;;;;;;;20.15;11.85;;;;;;;15.78;100.00;101929.09;10458651;28;20048;-63
2021/08/30 00:43:44;;;;;;;18.55;11.65;;;;;;;15.61;100.00;101935.34;10458312;28;20049;-65
2021/08/30 00:48:47;;;;;;;15.88;10.80;;;;;;;15.69;100.00;101928.78;10457739;28;20041;-63
2021/08/30 00:53:50;;;;;;;18.40;12.73;;;;;;;15.38;100.00;101931.50;10456901;28;20044;-64
2021/08/30 00:58:54;;;;;;;17.17;10.35;;;;;;;15.50;100.00;101927.25;10457410;28;20052;-64
2021/08/30 01:03:57;;;;;;;18.90;11.13;;;;;;;15.26;100.00;101920.81;10457719;28;20056;-63
2021/08/30 01:09:26;;;;;;;14.25;11.18;;;;;;;15.39;100.00;101925.25;10456300;28;20056;-64
2021/08/30 01:14:32;;;;;;;16.15;11.02;;;;;;;15.45;100.00;101929.34;10451716;28;20055;-63
2021/08/30 01:19:44;;;;;;;16.85;10.38;;;;;;;15.58;100.00;101937.34;10456598;28;20132;-63
2021/08/30 01:24:49;;;;;;;13.05;10.38;;;;;;;15.78;100.00;101934.38;10455635;28;20405;-65
2021/08/30 01:30:09;;;;;;;18.33;11.43;;;;;;;15.78;100.00;101923.81;10455332;28;20045;-65
2021/08/30 01:35:26;;;;;;;16.23;11.75;;;;;;;15.51;100.00;101936.03;10456864;28;20041;-64
2021/08/30 01:40:30;;;;;;;19.25;11.13;;;;;;;15.87;100.00;101937.38;10456627;28;20056;-64
2021/08/30 01:45:34;;;;;;;17.02;11.75;;;;;;;15.80;100.00;101931.63;10455318;28;20409;-63
2021/08/30 01:50:38;;;;;;;15.98;11.55;;;;;;;15.78;100.00;101936.16;10455301;28;20056;-63
2021/08/30 01:55:50;;;;;;;13.82;10.48;;;;;;;15.78;100.00;101933.53;10455210;28;20049;-64
2021/08/30 02:00:53;;;;;;;15.40;10.13;;;;;;;16.00;100.00;101932.19;10456481;28;20048;-65
2021/08/30 02:06:01;;;;;;;16.60;11.23;;;;;;;15.86;100.00;101935.69;10455270;28;20052;-64
2021/08/30 02:11:06;;;;;;;19.45;11.00;;;;;;;15.94;100.00;101936.09;10455843;28;20064;-63
2021/08/30 02:16:09;;;;;;;16.88;11.65;;;;;;;15.81;100.00;101933.34;10456131;28;20052;-64
2021/08/30 02:21:28;;;;;;;16.20;10.20;;;;;;;15.83;100.00;101930.59;10455630;28;20496;-65
2021/08/30 02:26:40;;;;;;;19.17;11.43;;;;;;;15.86;100.00;101933.06;10455531;28;20065;-63
2021/08/30 02:31:46;;;;;;;14.80;11.15;;;;;;;16.02;100.00;101933.81;10454429;28;20056;-63
2021/08/30 02:36:49;;;;;;;18.80;11.27;;;;;;;15.80;100.00;101934.25;10456738;28;20095;-65
2021/08/30 02:41:52;;;;;;;11.90;9.32;;;;;;;15.74;100.00;101924.91;10462034;28;20049;-64
2021/08/30 02:46:56;;;;;;;21.80;14.18;;;;;;;15.87;100.00;101924.19;10462402;28;20048;-65
2021/08/30 02:52:04;;;;;;;15.30;10.35;;;;;;;15.93;100.00;101924.66;10445595;28;20049;-64
2021/08/30 02:57:07;;;;;;;16.58;10.77;;;;;;;15.87;100.00;101921.53;10463395;28;20049;-65
2021/08/30 03:02:10;;;;;;;20.63;13.52;;;;;;;15.87;100.00;101927.69;10462840;28;20049;-64
2021/08/30 03:07:12;;;;;;;18.70;12.60;;;;;;;15.72;100.00;101929.44;10460907;28;20132;-65
2021/08/30 03:12:16;;;;;;;16.48;12.10;;;;;;;15.71;100.00;101924.25;10462393;28;20045;-65
2021/08/30 03:17:19;;;;;;;14.02;10.00;;;;;;;15.93;100.00;101926.44;10460415;28;20056;-64
2021/08/30 03:22:22;;;;;;;18.73;11.20;;;;;;;15.94;100.00;101915.78;10460679;28;20060;-64
2021/08/30 03:27:24;;;;;;;17.70;13.32;;;;;;;15.81;100.00;101928.06;10461519;28;20536;-64
2021/08/30 03:32:27;;;;;;;18.10;12.07;;;;;;;15.76;100.00;101922.22;10461231;28;20052;-64
2021/08/30 03:37:29;;;;;;;18.13;12.00;;;;;;;15.73;100.00;101917.09;10460975;28;20044;-64
2021/08/30 03:42:32;;;;;;;21.48;12.77;;;;;;;15.79;100.00;101922.88;10459670;28;20049;-65
2021/08/30 03:47:35;;;;;;;16.23;10.50;;;;;;;15.89;100.00;101917.03;10459685;28;20045;-66
2021/08/30 03:52:40;;;;;;;16.33;11.70;;;;;;;15.85;100.00;101915.50;10459923;28;20052;-66
2021/08/30 03:57:42;;;;;;;16.58;12.35;;;;;;;15.82;100.00;101916.56;10459458;28;20095;-64
2021/08/30 04:02:45;;;;;;;18.55;11.40;;;;;;;15.76;100.00;101914.28;10458723;28;20397;-64
2021/08/30 04:07:48;;;;;;;19.38;12.95;;;;;;;15.73;100.00;101910.00;10458941;28;20543;-63
2021/08/30 04:12:50;;;;;;;18.20;13.02;;;;;;;15.90;100.00;101908.16;10460009;28;20053;-65
2021/08/30 04:17:53;;;;;;;20.15;12.85;;;;;;;15.90;100.00;101902.88;10459162;28;20429;-66
2021/08/30 04:22:56;;;;;;;24.77;14.70;;;;;;;15.73;100.00;101911.81;10459520;28;20053;-65
2021/08/30 04:27:58;;;;;;;23.85;12.98;;;;;;;15.87;100.00;101919.75;10458626;28;20428;-65
2021/08/30 04:33:00;;;;;;;20.05;12.75;;;;;;;16.00;100.00;101919.00;10459360;28;20075;-63
2021/08/30 04:38:03;;;;;;;18.98;12.30;;;;;;;15.89;100.00;101915.22;10458640;28;20045;-65
2021/08/30 04:43:11;;;;;;;23.95;14.20;;;;;;;16.05;100.00;101919.56;10458346;28;20531;-65
2021/08/30 04:48:14;;;;;;;24.13;14.10;;;;;;;15.92;100.00;101922.09;10457822;28;20049;-64
2021/08/30 04:53:16;;;;;;;21.15;12.18;;;;;;;16.07;100.00;101925.56;10458707;28;20045;-64
2021/08/30 04:58:18;;;;;;;20.52;12.35;;;;;;;16.09;100.00;101924.56;10457568;28;20055;-65
2021/08/30 05:03:21;;;;;;;27.23;14.90;;;;;;;16.06;100.00;101929.19;10457636;28;20064;-64
2021/08/30 05:08:23;;;;;;;32.15;18.00;;;;;;;16.00;100.00;101929.56;10457379;28;20079;-64
2021/08/30 05:13:27;;;;;;;26.33;17.38;;;;;;;15.97;100.00;101931.44;10457047;28;20394;-63
2021/08/30 05:18:29;;;;;;;27.75;17.02;;;;;;;16.03;100.00;101942.59;10457089;28;20052;-65
2021/08/30 05:23:32;;;;;;;20.70;13.63;;;;;;;16.31;100.00;101939.91;10457546;28;20053;-65
2021/08/30 05:28:34;;;;;;;25.23;16.15;;;;;;;16.09;100.00;101953.63;10456799;28;20045;-64
2021/08/30 05:33:37;;;;;;;21.20;14.57;;;;;;;16.27;100.00;101953.38;10457198;28;20049;-64
2021/08/30 05:38:39;;;;;;;23.35;15.45;;;;;;;16.29;100.00;101954.13;10456616;28;20040;-63
2021/08/30 05:43:41;;;;;;;28.02;15.48;;;;;;;16.35;100.00;101964.31;10456542;28;20052;-65
2021/08/30 05:48:48;;;;;;;22.63;17.45;;;;;;;16.28;100.00;101963.03;10456353;28;20045;-64
2021/08/30 05:53:51;;;;;;;27.08;15.98;;;;;;;16.53;100.00;101964.97;10456415;28;20052;-65
2021/08/30 05:58:53;;;;;;;24.60;18.10;;;;;;;16.25;100.00;101968.50;10456098;28;20602;-64
2021/08/30 06:03:55;;;;;;;31.42;15.80;;;;;;;16.44;100.00;101966.41;10456030;28;20500;-66
2021/08/30 06:08:58;;;;;;;31.83;17.80;;;;;;;16.59;100.00;101963.72;10456439;28;20045;-65
2021/08/30 06:14:00;;;;;;;29.92;20.58;;;;;;;16.68;100.00;101965.78;10461021;28;20052;-64
2021/08/30 06:19:02;;;;;;;32.10;19.58;;;;;;;16.65;100.00;101971.25;10463947;28;20049;-64
2021/08/30 06:24:06;;;;;;;28.10;18.27;;;;;;;17.01;100.00;101973.34;10463510;28;20498;-63
2021/08/30 06:29:08;;;;;;;37.78;21.63;;;;;;;16.83;100.00;101977.16;10463503;28;20524;-65
2021/08/30 06:34:11;;;;;;;25.50;18.73;;;;;;;17.20;100.00;101975.59;10463893;28;20059;-63
2021/08/30 06:39:13;;;;;;;32.80;18.35;;;;;;;17.20;100.00;101978.25;10463280;28;20049;-63
2021/08/30 06:44:15;;;;;;;20.65;16.17;;;;;;;17.21;100.00;101979.09;10463368;28;20045;-65
2021/08/30 06:49:18;;;;;;;28.00;17.98;;;;;;;17.59;100.00;101973.00;10462635;28;20056;-63
2021/08/30 06:54:20;;;;;;;26.65;19.02;;;;;;;17.54;100.00;101975.13;10462794;28;20048;-64
2021/08/30 06:59:22;;;;;;;28.15;17.58;;;;;;;17.60;100.00;101977.31;10461215;28;20063;-65
2021/08/30 07:04:24;;;;;;;30.25;17.73;;;;;;;17.78;100.00;101973.41;10462116;28;20045;-64
2021/08/30 07:09:27;;;;;;;29.02;17.20;;;;;;;17.99;100.00;101978.22;10462209;28;20460;-64
2021/08/30 07:14:29;;;;;;;25.95;15.38;;;;;;;17.95;100.00;101977.56;10462592;28;20144;-64
2021/08/30 07:19:32;;;;;;;31.75;18.00;;;;;;;17.78;100.00;101976.06;10461693;28;20045;-64
2021/08/30 07:24:34;;;;;;;23.15;15.70;;;;;;;17.86;100.00;101972.06;10459071;28;20060;-65
2021/08/30 07:29:37;;;;;;;24.63;15.77;;;;;;;18.22;100.00;101965.13;10461387;28;20056;-64
2021/08/30 07:34:39;;;;;;;24.23;15.70;;;;;;;18.09;100.00;101978.41;10461234;28;20063;-64
2021/08/30 07:39:41;;;;;;;29.40;15.07;;;;;;;18.68;100.00;101961.81;10460777;28;20049;-63
2021/08/30 07:44:43;;;;;;;18.08;11.63;;;;;;;19.19;100.00;101976.66;10461004;28;20048;-65
2021/08/30 07:49:46;;;;;;;24.98;14.15;;;;;;;18.77;100.00;101971.75;10460956;28;20075;-63
2021/08/30 07:54:49;;;;;;;22.02;13.60;;;;;;;18.80;100.00;101974.16;10460352;28;20056;-64
2021/08/30 07:59:51;;;;;;;19.27;12.75;;;;;;;19.92;100.00;101975.50;10460036;28;20057;-63
2021/08/30 08:04:56;;;;;;;19.05;11.63;;;;;;;21.12;97.30;101971.13;10460038;28;20052;-64
2021/08/30 08:09:59;;;;;;;17.83;12.95;;;;;;;20.47;97.21;101988.00;10459351;28;20505;-63
2021/08/30 08:15:02;;;;;;;22.25;13.25;;;;;;;20.37;98.35;101983.41;10459502;28;20424;-65
2021/08/30 08:20:06;;;;;;;18.48;11.60;;;;;;;20.37;96.12;101974.59;10459303;28;20056;-64
2021/08/30 08:25:15;;;;;;;19.95;12.40;;;;;;;21.09;92.43;101975.88;10459646;28;20053;-65
2021/08/30 08:30:18;;;;;;;13.18;10.02;;;;;;;20.93;91.59;101971.81;10458702;28;20052;-64
2021/08/30 08:35:20;;;;;;;14.25;10.25;;;;;;;20.44;95.84;101975.78;10457098;28;20507;-64
2021/08/30 08:40:23;;;;;;;16.27;10.57;;;;;;;21.68;89.17;101982.44;10458635;28;20053;-64
2021/08/30 08:45:25;;;;;;;18.95;11.32;;;;;;;20.72;95.15;101985.06;10458306;28;20057;-65
2021/08/30 08:50:29;;;;;;;15.30;10.43;;;;;;;19.85;99.92;101991.06;10457966;28;20390;-64
2021/08/30 08:55:34;;;;;;;14.68;11.35;;;;;;;20.23;100.00;101991.66;10458574;28;20048;-65
2021/08/30 09:00:37;;;;;;;16.98;11.95;;;;;;;21.09;96.42;101997.16;10457549;28;20053;-65
2021/08/30 09:05:40;;;;;;;15.50;10.77;;;;;;;20.41;97.52;101989.38;10457524;28;20409;-65
2021/08/30 09:10:45;;;;;;;15.20;10.60;;;;;;;20.27;99.00;101992.28;10457688;28;20048;-65
2021/08/30 09:15:47;;;;;;;15.55;10.65;;;;;;;19.30;99.25;101993.47;10457245;28;20048;-65
2021/08/30 09:20:49;;;;;;;15.65;11.18;;;;;;;19.18;100.00;102004.16;10457171;28;20041;-65
2021/08/30 09:26:00;;;;;;;18.83;12.48;;;;;;;19.12;100.00;101998.34;10456762;28;20428;-65
2021/08/30 09:31:03;;;;;;;16.10;11.80;;;;;;;20.28;100.00;101984.16;10456751;28;20055;-64
2021/08/30 09:36:05;;;;;;;14.13;11.05;;;;;;;21.18;95.69;101995.53;10456824;28;20049;-65
2021/08/30 09:41:09;;;;;;;14.82;11.05;;;;;;;21.08;92.82;101983.00;10456547;28;20049;-65
2021/08/30 09:46:11;;;;;;;14.43;10.13;;;;;;;21.15;93.18;101983.34;10456555;28;20045;-66
2021/08/30 09:51:14;;;;;;;14.23;11.18;;;;;;;20.87;86.10;101982.97;10456195;28;20045;-65
2021/08/30 09:56:16;;;;;;;13.95;10.80;;;;;;;20.42;92.55;101994.56;10456349;28;20041;-65
2021/08/30 10:01:19;;;;;;;13.48;10.30;;;;;;;21.00;89.92;101982.81;10456332;28;20048;-65
2021/08/30 10:06:21;;;;;;;14.85;9.40;;;;;;;20.86;92.39;101985.75;10455948;28;20053;-66
2021/08/30 10:11:24;;;;;;;17.05;11.35;;;;;;;20.53;89.88;101984.88;10455960;28;20492;-67
2021/08/30 10:16:26;;;;;;;15.10;10.20;;;;;;;21.05;90.57;101990.41;10455889;28;20400;-65
2021/08/30 10:21:30;;;;;;;14.00;10.50;;;;;;;21.24;90.66;101982.56;10455453;28;20382;-68
2021/08/30 10:26:37;;;;;;;11.32;9.13;;;;;;;21.97;86.47;101969.28;10455634;28;20436;-66
2021/08/30 10:31:51;;;;;;;10.85;9.43;;;;;;;21.82;79.29;101978.56;10454566;28;20060;-66
2021/08/30 10:36:55;;;;;;;10.98;8.93;;;;;;;22.45;86.10;101963.25;10455469;28;20051;-67
2021/08/30 10:42:02;;;;;;;10.20;8.70;;;;;;;23.59;79.75;101977.81;10455247;28;20485;-66
2021/08/30 10:47:12;;;;;;;8.65;7.82;;;;;;;22.02;78.67;101983.03;10455192;28;20056;-66
2021/08/30 10:52:15;;;;;;;10.90;8.30;;;;;;;21.72;81.71;101973.22;10455551;28;20093;-67
2021/08/30 10:57:18;;;;;;;12.48;8.50;;;;;;;21.76;86.74;101969.31;10455698;28;20057;-68
2021/08/30 11:02:20;;;;;;;9.75;8.05;;;;;;;21.82;82.53;101965.25;10462449;28;20072;-68
2021/08/30 11:07:24;;;;;;;8.45;6.90;;;;;;;21.80;79.88;101964.53;10462862;28;20087;-67
2021/08/30 11:12:26;;;;;;;9.77;7.53;;;;;;;22.15;79.61;101965.94;10460999;28;20063;-67
2021/08/30 11:17:33;;;;;;;9.00;6.57;;;;;;;23.13;79.24;101962.47;10460694;28;20059;-67
2021/08/30 11:22:35;;;;;;;8.68;7.32;;;;;;;22.30;80.83;101961.13;10462221;28;20083;-67
2021/08/30 11:27:38;;;;;;;10.15;7.28;;;;;;;22.22;76.36;101962.59;10461561;28;20045;-67
2021/08/30 11:32:41;;;;;;;10.15;6.70;;;;;;;21.07;79.90;101964.50;10461005;28;20049;-67
2021/08/30 11:37:44;;;;;;;8.18;7.15;;;;;;;20.77;83.85;101958.94;10461137;28;20045;-67
2021/08/30 11:42:46;;;;;;;10.15;6.45;;;;;;;20.67;83.31;101970.47;10460925;28;20071;-66
2021/08/30 11:47:50;;;;;;;8.32;6.65;;;;;;;20.79;84.39;101966.78;10460743;28;20067;-70
2021/08/30 11:52:59;;;;;;;7.43;6.72;;;;;;;21.23;86.54;101972.03;10460106;28;20056;-67
2021/08/30 11:58:03;;;;;;;7.40;6.70;;;;;;;21.86;81.52;101966.69;10460288;28;20053;-68
2021/08/30 12:03:16;;;;;;;10.90;6.25;;;;;;;22.13;77.72;101962.59;10460388;28;20049;-65
2021/08/30 12:08:22;;;;;;;7.55;5.80;;;;;;;23.89;80.70;101958.09;10460125;28;20049;-67
2021/08/30 12:18:29;;;;;;;7.82;5.53;;;;;;;24.38;66.98;101941.75;10459678;28;20051;-66
2021/08/30 12:23:32;;;;;;;6.65;5.90;;;;;;;23.12;73.49;101942.06;10459002;28;20131;-65
2021/08/30 12:28:34;;;;;;;6.72;4.75;;;;;;;23.40;72.36;101947.50;10458818;28;20045;-65
2021/08/30 12:33:36;;;;;;;6.18;5.57;;;;;;;26.10;67.66;101936.81;10459089;28;20059;-66
2021/08/30 12:38:39;;;;;;;6.55;5.32;;;;;;;23.86;65.09;101943.16;10458810;28;20049;-68
2021/08/30 12:43:46;;;;;;;5.90;4.97;;;;;;;25.24;62.39;101932.31;10458487;28;20049;-65
2021/08/30 12:48:51;;;;;;;17.20;6.07;;;;;;;24.18;64.99;101927.66;10458326;28;20041;-66
2021/08/30 12:53:54;;;;;;;6.75;4.47;;;;;;;23.07;66.74;101930.97;10458033;28;20057;-66
2021/08/30 12:58:56;;;;;;;5.03;4.63;;;;;;;25.02;68.33;101932.66;10457829;28;20041;-66
2021/08/30 13:03:58;;;;;;;5.60;4.88;;;;;;;24.31;65.94;101920.09;10457827;28;20056;-66
2021/08/30 13:09:01;;;;;;;5.43;4.80;;;;;;;24.15;62.23;101926.09;10457676;28;20048;-66
2021/08/30 13:14:03;;;;;;;5.63;5.13;;;;;;;23.68;65.06;101926.19;10457715;28;20114;-65
2021/08/30 13:19:05;;;;;;;5.90;4.80;;;;;;;23.42;70.54;101926.84;10457211;28;20555;-66
2021/08/30 13:24:08;;;;;;;6.32;4.72;;;;;;;24.03;71.18;101925.47;10456610;28;20056;-66
2021/08/30 13:29:11;;;;;;;6.18;4.28;;;;;;;24.97;64.96;101920.72;10456932;28;20045;-66
2021/08/30 13:34:13;;;;;;;5.43;4.60;;;;;;;23.11;66.84;101919.00;10457573;28;20127;-66
2021/08/30 13:39:15;;;;;;;7.85;5.40;;;;;;;23.12;68.99;101923.38;10456669;28;20086;-66
2021/08/30 13:44:18;;;;;;;6.05;4.75;;;;;;;23.41;67.76;101921.63;10456403;28;20478;-67
2021/08/30 13:49:20;;;;;;;4.93;4.30;;;;;;;23.00;65.32;101919.16;10456508;28;20045;-67
2021/08/30 13:54:23;;;;;;;6.65;5.22;;;;;;;22.84;71.73;101921.56;10456766;28;20057;-66
2021/08/30 13:59:25;;;;;;;12.50;4.60;;;;;;;22.32;74.61;101935.97;10455976;28;20047;-66
2021/08/30 14:04:37;;;;;;;6.03;4.80;;;;;;;22.22;71.00;101938.59;10456370;28;20041;-66
2021/08/30 14:09:39;;;;;;;5.22;4.72;;;;;;;22.43;75.53;101924.34;10455881;28;20051;-66
2021/08/30 14:14:42;;;;;;;4.75;4.28;;;;;;;22.02;71.53;101923.50;10455856;28;20053;-66
2021/08/30 14:19:45;;;;;;;6.50;4.90;;;;;;;21.48;77.25;101926.38;10455878;28;20045;-66
2021/08/30 14:24:47;;;;;;;5.35;4.85;;;;;;;21.38;80.98;101937.94;10456555;28;20060;-67
2021/08/30 14:29:50;;;;;;;6.10;4.93;;;;;;;21.34;82.13;101930.19;10455535;28;20110;-67
2021/08/30 14:34:52;;;;;;;6.80;5.38;;;;;;;21.41;82.36;101932.34;10459599;28;20064;-67
2021/08/30 14:39:55;;;;;;;6.13;5.28;;;;;;;21.46;84.19;101930.97;10463097;28;20049;-67
2021/08/30 14:44:57;;;;;;;6.53;5.30;;;;;;;23.11;75.49;101920.84;10463135;28;20052;-67
2021/08/30 14:49:59;;;;;;;3.85;3.50;;;;;;;22.77;74.05;101921.28;10461893;28;20052;-66
2021/08/30 14:55:03;;;;;;;6.10;4.55;;;;;;;22.40;74.22;101924.63;10463104;28;20070;-66
2021/08/30 15:00:06;;;;;;;5.50;4.78;;;;;;;21.91;77.41;101936.97;10462458;28;20056;-65
2021/08/30 15:05:09;;;;;;;6.65;4.35;;;;;;;21.66;77.99;101936.44;10461591;28;20049;-67
2021/08/30 15:10:11;;;;;;;5.22;4.03;;;;;;;21.32;80.53;101931.31;10462193;28;20056;-66
2021/08/30 15:15:14;;;;;;;7.30;4.93;;;;;;;21.40;80.96;101935.97;10462012;28;20057;-66
2021/08/30 15:20:16;;;;;;;3.90;3.60;;;;;;;22.97;67.99;101933.63;10461847;28;20049;-67
2021/08/30 15:25:18;;;;;;;7.93;3.67;;;;;;;23.84;66.11;101933.59;10462036;28;20057;-66
2021/08/30 15:30:21;;;;;;;5.03;3.05;;;;;;;24.25;65.68;101934.09;10461580;28;20056;-66
2021/08/30 15:35:23;;;;;;;5.28;3.50;;;;;;;23.74;62.28;101933.63;10461248;28;20060;-66
2021/08/30 15:40:25;;;;;;;3.67;3.38;;;;;;;23.63;64.76;101929.28;10461297;28;20120;-67
2021/08/30 15:45:28;;;;;;;4.35;3.55;;;;;;;22.92;68.75;101932.38;10460246;28;20056;-67
2021/08/30 15:50:31;;;;;;;4.15;3.75;;;;;;;22.23;72.70;101934.09;10460509;28;20051;-67
2021/08/30 15:55:34;;;;;;;12.00;4.28;;;;;;;21.97;77.67;101939.06;10460437;28;20053;-67
2021/08/30 16:00:36;;;;;;;4.13;3.47;;;;;;;21.97;76.94;101941.75;10460752;28;20045;-68
2021/08/30 16:05:39;;;;;;;6.55;4.40;;;;;;;22.40;74.14;101936.13;10460629;28;20127;-67
2021/08/30 16:10:42;;;;;;;6.40;3.92;;;;;;;22.66;73.06;101924.91;10459766;28;20049;-67
2021/08/30 16:15:48;;;;;;;5.90;3.70;;;;;;;21.93;75.28;101935.00;10459602;28;20412;-67
2021/08/30 16:20:50;;;;;;;5.28;4.03;;;;;;;21.58;78.29;101944.25;10459404;28;20125;-67
2021/08/30 16:25:52;;;;;;;6.65;4.55;;;;;;;20.86;81.35;101940.50;10459153;28;20489;-67
2021/08/30 16:30:55;;;;;;;5.60;4.88;;;;;;;21.40;78.25;101933.31;10459121;28;20053;-67
2021/08/30 16:35:57;;;;;;;9.43;4.45;;;;;;;21.59;76.67;101940.63;10458896;28;20072;-67
2021/08/30 16:41:00;;;;;;;5.32;4.15;;;;;;;21.19;78.14;101941.31;10458951;28;20056;-68
2021/08/30 16:46:02;;;;;;;5.13;4.03;;;;;;;21.04;78.75;101941.63;10458389;28;20057;-68
2021/08/30 16:51:04;;;;;;;5.60;4.13;;;;;;;21.11;81.69;101947.28;10458688;28;20056;-68
2021/08/30 16:56:07;;;;;;;4.85;4.43;;;;;;;20.92;82.33;101953.31;10458044;28;20053;-68
2021/08/30 17:01:10;;;;;;;5.93;4.00;;;;;;;20.63;85.91;101959.22;10458692;28;20048;-67
2021/08/30 17:06:13;;;;;;;4.68;4.22;;;;;;;20.32;85.71;101961.66;10457610;28;20071;-68
2021/08/30 17:11:15;;;;;;;5.72;4.47;;;;;;;20.07;84.21;101965.44;10458050;28;20137;-67
2021/08/30 17:16:17;;;;;;;6.10;5.10;;;;;;;20.31;81.71;101961.78;10457295;28;20504;-67
2021/08/30 17:21:20;;;;;;;6.18;5.03;;;;;;;20.30;82.97;101960.94;10457237;28;20500;-67
2021/08/30 17:26:23;;;;;;;6.55;4.50;;;;;;;20.08;82.36;101974.28;10457072;28;20056;-66
2021/08/30 17:31:26;;;;;;;5.68;4.75;;;;;;;19.85;84.14;101975.13;10456877;28;20056;-66
2021/08/30 17:36:29;;;;;;;7.00;4.70;;;;;;;20.02;84.73;101987.09;10456617;28;20405;-67
2021/08/30 17:41:31;;;;;;;7.65;5.30;;;;;;;19.46;88.77;101989.66;10456734;28;20045;-67
2021/08/30 17:46:34;;;;;;;9.05;5.50;;;;;;;19.35;88.21;101998.44;10456485;28;20060;-66
2021/08/30 17:51:39;;;;;;;7.25;4.93;;;;;;;19.39;87.51;102010.50;10456312;28;20459;-67
2021/08/30 17:56:42;;;;;;;7.72;5.35;;;;;;;19.33;86.06;102004.81;10456182;28;20057;-67
2021/08/30 18:01:45;;;;;;;5.88;4.30;;;;;;;19.27;88.60;102006.13;10456579;28;20064;-67
2021/08/30 18:06:51;;;;;;;5.97;5.38;;;;;;;18.90;92.93;102022.13;10456196;28;20095;-66
2021/08/30 18:11:54;;;;;;;5.72;5.05;;;;;;;18.65;95.73;102023.03;10464495;28;20057;-66
2021/08/30 18:16:56;;;;;;;6.50;5.65;;;;;;;18.60;96.12;102028.69;10464215;28;20508;-66
2021/08/30 18:21:58;;;;;;;12.80;5.80;;;;;;;18.64;94.68;102037.25;10463879;28;20053;-67
2021/08/30 18:27:01;;;;;;;8.43;5.50;;;;;;;18.44;94.39;102038.69;10464212;28;20052;-67
2021/08/30 18:32:04;;;;;;;8.50;6.20;;;;;;;18.40;96.10;102042.53;10464000;28;20049;-66
2021/08/30 18:37:06;;;;;;;7.50;6.20;;;;;;;18.40;95.22;102051.31;10463464;28;20443;-66
2021/08/30 18:42:12;;;;;;;8.52;5.93;;;;;;;18.26;96.42;102062.06;10463442;28;20045;-67
2021/08/30 18:47:15;;;;;;;8.95;5.80;;;;;;;17.93;97.73;102060.78;10463023;28;20492;-67
2021/08/30 18:52:17;;;;;;;7.55;5.88;;;;;;;17.91;100.00;102068.00;10463449;28;20045;-67
2021/08/30 18:57:20;;;;;;;5.63;5.10;;;;;;;17.92;99.73;102080.25;10462614;28;20052;-66
2021/08/30 19:02:22;;;;;;;8.98;6.45;;;;;;;17.68;100.00;102093.34;10463197;28;20120;-66
2021/08/30 19:07:25;;;;;;;9.10;6.55;;;;;;;17.76;100.00;102096.34;10462321;28;20048;-66
2021/08/30 19:12:27;;;;;;;7.75;6.10;;;;;;;17.71;100.00;102091.34;10462865;28;20045;-68
2021/08/30 19:17:29;;;;;;;8.13;7.00;;;;;;;17.60;100.00;102097.38;10462017;28;20044;-67
2021/08/30 19:22:32;;;;;;;12.02;8.52;;;;;;;17.44;100.00;102092.22;10461513;28;20156;-67
2021/08/30 19:27:34;;;;;;;11.68;8.23;;;;;;;17.30;100.00;102102.00;10462135;28;20044;-67
2021/08/30 19:32:37;;;;;;;8.85;8.00;;;;;;;17.18;100.00;102104.53;10461453;28;20045;-67
2021/08/30 19:37:39;;;;;;;10.25;8.07;;;;;;;16.95;100.00;102115.75;10461292;28;20044;-67
2021/08/30 19:42:42;;;;;;;9.80;8.18;;;;;;;16.70;100.00;102123.38;10461257;28;20064;-68
2021/08/30 19:47:44;;;;;;;9.63;7.32;;;;;;;16.80;100.00;102117.53;10461320;28;20049;-66
2021/08/30 19:52:48;;;;;;;8.35;7.43;;;;;;;16.68;100.00;102124.44;10460859;28;20433;-66
2021/08/30 19:57:51;;;;;;;7.85;6.78;;;;;;;16.71;100.00;102122.44;10460425;28;20124;-66
2021/08/30 20:03:04;;;;;;;11.70;9.15;;;;;;;16.58;100.00;102123.31;10460547;28;20045;-67
2021/08/30 20:08:07;;;;;;;17.33;10.75;;;;;;;16.40;100.00;102127.91;10460137;28;20127;-67
2021/08/30 20:13:09;;;;;;;13.27;10.18;;;;;;;16.27;100.00;102131.31;10460349;28;20056;-67
2021/08/30 20:18:12;;;;;;;13.50;9.15;;;;;;;16.22;100.00;102133.34;10459621;28;20045;-67
2021/08/30 20:23:14;;;;;;;12.15;8.68;;;;;;;16.03;100.00;102125.69;10459235;28;20397;-67
2021/08/30 20:28:20;;;;;;;10.32;9.23;;;;;;;16.08;100.00;102136.81;10459040;28;20049;-66
2021/08/30 20:33:24;;;;;;;13.27;7.93;;;;;;;16.09;100.00;102137.69;10458960;28;20056;-66
2021/08/30 20:38:26;;;;;;;12.75;9.00;;;;;;;15.93;100.00;102137.75;10458958;28;20048;-66
2021/08/30 20:43:29;;;;;;;12.07;8.52;;;;;;;16.24;100.00;102143.84;10458395;28;20049;-67
2021/08/30 20:48:31;;;;;;;12.18;9.30;;;;;;;15.93;100.00;102143.03;10459005;28;20049;-66
2021/08/30 20:53:33;;;;;;;10.57;9.48;;;;;;;15.84;100.00;102149.69;10459002;28;20045;-67
2021/08/30 20:58:36;;;;;;;12.15;8.75;;;;;;;15.73;100.00;102154.72;10458120;28;20048;-66
2021/08/30 21:03:38;;;;;;;12.38;10.18;;;;;;;15.64;100.00;102153.44;10458257;28;20053;-67
2021/08/30 21:08:40;;;;;;;13.55;10.05;;;;;;;15.72;100.00;102147.75;10457421;28;20045;-67
2021/08/30 21:13:43;;;;;;;13.45;8.70;;;;;;;15.54;100.00;102152.28;10457484;28;20052;-66
2021/08/30 21:18:45;;;;;;;11.23;9.68;;;;;;;15.59;100.00;102164.28;10457166;28;20044;-68
2021/08/30 21:23:47;;;;;;;14.32;10.10;;;;;;;15.46;100.00;102168.53;10457590;28;20053;-66
2021/08/30 21:28:50;;;;;;;16.63;8.73;;;;;;;15.39;100.00;102175.94;10456940;28;20048;-66
2021/08/30 21:33:52;;;;;;;13.35;9.60;;;;;;;15.23;100.00;102175.97;10456784;28;20056;-66
2021/08/30 21:38:57;;;;;;;14.90;10.10;;;;;;;15.14;100.00;102187.00;10456701;28;20059;-66
2021/08/30 21:43:59;;;;;;;15.45;11.10;;;;;;;14.99;100.00;102187.84;10455816;28;20124;-66
2021/08/30 21:49:02;;;;;;;18.83;11.60;;;;;;;14.94;100.00;102193.34;10456363;28;20067;-66
2021/08/30 21:54:04;;;;;;;16.15;10.80;;;;;;;15.05;100.00;102195.44;10456624;28;20063;-68
2021/08/30 21:59:06;;;;;;;14.02;11.20;;;;;;;15.03;100.00;102195.50;10456133;28;20048;-67
2021/08/30 22:04:09;;;;;;;15.38;10.02;;;;;;;15.09;100.00;102199.59;10456174;28;20052;-66
2021/08/30 22:09:11;;;;;;;15.30;10.90;;;;;;;15.05;100.00;102205.97;10456009;28;20045;-67
2021/08/30 22:14:15;;;;;;;14.18;11.27;;;;;;;14.93;100.00;102203.97;10456033;28;20059;-66
2021/08/30 22:19:17;;;;;;;18.85;11.88;;;;;;;15.08;100.00;102197.03;10454607;28;20400;-67
2021/08/30 22:24:20;;;;;;;18.83;12.32;;;;;;;14.91;100.00;102206.72;10455816;28;20052;-66
2021/08/30 22:29:22;;;;;;;18.13;10.75;;;;;;;14.83;100.00;102214.19;10456024;28;20045;-67
2021/08/30 22:34:24;;;;;;;14.10;10.40;;;;;;;15.07;100.00;102208.53;10456034;28;20057;-68
2021/08/30 22:39:27;;;;;;;15.38;12.57;;;;;;;15.02;100.00;102211.41;10455428;28;20477;-67
2021/08/30 22:44:29;;;;;;;17.25;12.48;;;;;;;14.66;100.00;102215.09;10455556;28;20049;-67
2021/08/30 22:49:31;;;;;;;14.38;11.88;;;;;;;14.84;100.00;102216.75;10455370;28;20045;-66
2021/08/30 22:54:34;;;;;;;16.52;11.38;;;;;;;14.87;100.00;102221.00;10457551;28;20072;-68